createdAt,value
2019-05-15T00:00:49.743Z,52.58
2019-05-15T00:01:49.707Z,52.58
2019-05-15T00:02:49.696Z,52.68
2019-05-15T00:03:49.695Z,52.78
2019-05-15T00:04:49.683Z,52.16
2019-05-15T00:05:49.860Z,52.66
2019-05-15T00:06:49.652Z,52.37
2019-05-15T00:07:49.640Z,52.68
2019-05-15T00:08:49.629Z,53.09
2019-05-15T00:09:49.619Z,52.68
2019-05-15T00:10:49.634Z,52.68
2019-05-15T00:11:49.596Z,52.88
2019-05-15T00:12:49.586Z,53.09
2019-05-15T00:13:49.576Z,53.19
2019-05-15T00:14:49.564Z,52.98
2019-05-15T00:15:49.575Z,52.68
2019-05-15T00:16:49.547Z,52.68
2019-05-15T00:17:49.531Z,53.30
2019-05-15T00:18:49.521Z,53.09
2019-05-15T00:19:49.511Z,53.09
2019-05-15T00:20:49.889Z,52.47
2019-05-15T00:21:49.489Z,52.88
2019-05-15T00:22:49.478Z,52.81
2019-05-15T00:23:49.552Z,53.19
2019-05-15T00:24:49.458Z,53.63
2019-05-15T00:25:49.471Z,53.53
2019-05-15T00:26:49.436Z,53.53
2019-05-15T00:27:49.426Z,52.91
2019-05-15T00:28:49.414Z,53.22
2019-05-15T00:29:49.407Z,53.19
2019-05-15T00:30:49.420Z,53.22
2019-05-15T00:31:49.382Z,52.91
2019-05-15T00:32:49.371Z,53.61
2019-05-15T00:33:49.392Z,53.32
2019-05-15T00:34:49.348Z,54.35
2019-05-15T00:35:49.369Z,53.74
2019-05-15T00:36:49.328Z,53.32
2019-05-15T00:37:49.463Z,53.94
2019-05-15T00:38:49.308Z,53.42
2019-05-15T00:39:49.296Z,54.56
2019-05-15T00:40:49.747Z,54.86
2019-05-15T00:41:54.360Z,53.53
2019-05-15T00:42:50.263Z,54.66
2019-05-15T00:43:49.565Z,53.22
2019-05-15T00:44:49.471Z,53.74
2019-05-15T00:45:49.269Z,54.86
2019-05-15T00:46:49.226Z,54.04
2019-05-15T00:47:49.216Z,53.94
2019-05-15T00:48:49.200Z,54.66
2019-05-15T00:49:49.187Z,54.14
2019-05-15T00:50:49.180Z,54.35
2019-05-15T00:51:49.234Z,54.56
2019-05-15T00:52:49.158Z,54.66
2019-05-15T00:53:49.146Z,54.77
2019-05-15T00:54:49.143Z,54.66
2019-05-15T00:55:49.134Z,55.07
2019-05-15T00:56:49.114Z,54.46
2019-05-15T00:57:49.140Z,54.77
2019-05-15T00:58:49.095Z,54.77
2019-05-15T00:59:49.082Z,54.86
2019-05-15T01:00:49.071Z,55.00
2019-05-15T01:01:49.059Z,54.38
2019-05-15T01:02:49.050Z,55.00
2019-05-15T01:03:49.452Z,55.41
2019-05-15T01:04:49.046Z,55.82
2019-05-15T01:05:49.017Z,55.62
2019-05-15T01:06:52.494Z,55.51
2019-05-15T01:07:48.996Z,55.82
2019-05-15T01:08:49.024Z,55.82
2019-05-15T01:09:48.978Z,55.51
2019-05-15T01:10:49.106Z,55.30
2019-05-15T01:11:48.967Z,55.82
2019-05-15T01:12:48.942Z,55.82
2019-05-15T01:13:48.935Z,55.93
2019-05-15T01:14:49.138Z,55.93
2019-05-15T01:15:49.175Z,55.72
2019-05-15T01:16:49.140Z,55.82
2019-05-15T01:17:49.263Z,55.30
2019-05-15T01:18:49.241Z,55.62
2019-05-15T01:19:48.866Z,55.51
2019-05-15T01:20:49.490Z,55.41
2019-05-15T01:21:48.853Z,55.51
2019-05-15T01:22:48.836Z,55.38
2019-05-15T01:23:48.823Z,55.62
2019-05-15T01:24:48.812Z,55.72
2019-05-15T01:25:48.839Z,55.82
2019-05-15T01:26:49.334Z,56.03
2019-05-15T01:27:49.079Z,55.20
2019-05-15T01:28:49.572Z,56.34
2019-05-15T01:29:49.298Z,56.44
2019-05-15T01:30:48.869Z,56.13
2019-05-15T01:31:49.167Z,56.13
2019-05-15T01:32:48.723Z,56.13
2019-05-15T01:33:48.716Z,56.65
2019-05-15T01:34:49.157Z,56.65
2019-05-15T01:35:48.983Z,56.34
2019-05-15T01:36:49.088Z,56.54
2019-05-15T01:37:48.707Z,56.44
2019-05-15T01:38:48.660Z,56.03
2019-05-15T01:39:48.741Z,56.34
2019-05-15T01:40:48.776Z,56.37
2019-05-15T01:41:49.666Z,56.65
2019-05-15T01:42:49.993Z,56.65
2019-05-15T01:43:49.118Z,56.75
2019-05-15T01:44:48.664Z,56.65
2019-05-15T01:45:48.616Z,56.77
2019-05-15T01:46:48.591Z,56.65
2019-05-15T01:47:48.561Z,56.34
2019-05-15T01:48:49.331Z,56.34
2019-05-15T01:49:49.068Z,56.34
2019-05-15T01:50:49.207Z,56.67
2019-05-15T01:51:48.518Z,56.44
2019-05-15T01:52:48.505Z,56.44
2019-05-15T01:53:48.494Z,56.96
2019-05-15T01:54:48.992Z,56.65
2019-05-15T01:55:48.610Z,56.96
2019-05-15T01:56:49.523Z,56.77
2019-05-15T01:57:48.781Z,56.77
2019-05-15T01:58:48.781Z,56.67
2019-05-15T01:59:57.071Z,57.06
2019-05-15T02:00:49.442Z,57.37
2019-05-15T02:01:48.694Z,57.29
2019-05-15T02:02:48.398Z,57.29
2019-05-15T02:03:49.277Z,57.47
2019-05-15T02:04:48.739Z,57.40
2019-05-15T02:05:48.403Z,57.40
2019-05-15T02:06:48.481Z,57.50
2019-05-15T02:07:48.342Z,57.19
2019-05-15T02:08:49.688Z,56.88
2019-05-15T02:09:49.220Z,57.09
2019-05-15T02:10:49.345Z,56.88
2019-05-15T02:11:48.916Z,57.29
2019-05-15T02:12:48.289Z,56.88
2019-05-15T02:13:48.277Z,57.29
2019-05-15T02:14:48.619Z,57.63
2019-05-15T02:15:48.413Z,57.73
2019-05-15T02:16:48.555Z,58.04
2019-05-15T02:17:48.273Z,57.94
2019-05-15T02:18:48.865Z,57.29
2019-05-15T02:19:48.545Z,58.01
2019-05-15T02:20:49.403Z,57.32
2019-05-15T02:21:48.727Z,57.60
2019-05-15T02:22:48.565Z,57.81
2019-05-15T02:23:48.327Z,58.56
2019-05-15T02:24:48.322Z,58.56
2019-05-15T02:25:48.254Z,58.76
2019-05-15T02:26:48.356Z,58.45
2019-05-15T02:27:48.121Z,58.66
2019-05-15T02:28:48.803Z,58.56
2019-05-15T02:29:49.342Z,58.45
2019-05-15T02:30:50.389Z,58.45
2019-05-15T02:31:50.337Z,58.45
2019-05-15T02:32:50.104Z,58.76
2019-05-15T02:33:49.869Z,58.76
2019-05-15T02:34:50.082Z,58.76
2019-05-15T02:35:50.119Z,59.18
2019-05-15T02:36:49.368Z,59.00
2019-05-15T02:37:48.892Z,58.89
2019-05-15T02:38:48.628Z,59.31
2019-05-15T02:39:49.588Z,58.89
2019-05-15T02:40:49.433Z,58.79
2019-05-15T02:41:49.138Z,59.62
2019-05-15T02:42:49.251Z,59.62
2019-05-15T02:43:50.045Z,59.52
2019-05-15T02:44:49.961Z,59.52
2019-05-15T02:45:50.771Z,59.10
2019-05-15T02:46:49.998Z,59.52
2019-05-15T02:47:48.833Z,59.93
2019-05-15T02:48:48.845Z,59.93
2019-05-15T02:49:48.614Z,59.93
2019-05-15T02:50:50.060Z,60.14
2019-05-15T02:51:49.312Z,60.03
2019-05-15T02:52:49.709Z,60.03
2019-05-15T02:53:50.067Z,59.93
2019-05-15T02:54:49.813Z,59.41
2019-05-15T02:55:49.492Z,60.03
2019-05-15T02:56:49.508Z,59.93
2019-05-15T02:57:49.468Z,60.44
2019-05-15T02:58:49.102Z,60.58
2019-05-15T02:59:49.770Z,60.44
2019-05-15T03:00:52.952Z,60.65
2019-05-15T03:01:49.554Z,60.89
2019-05-15T03:02:49.883Z,61.38
2019-05-15T03:03:49.831Z,60.96
2019-05-15T03:04:48.653Z,60.78
2019-05-15T03:05:49.861Z,61.07
2019-05-15T03:06:49.603Z,60.89
2019-05-15T03:07:49.308Z,61.10
2019-05-15T03:08:49.507Z,61.10
2019-05-15T03:09:49.625Z,61.40
2019-05-15T03:10:49.675Z,61.71
2019-05-15T03:11:49.481Z,61.61
2019-05-15T03:12:49.526Z,61.51
2019-05-15T03:13:50.440Z,61.30
2019-05-15T03:14:49.097Z,61.40
2019-05-15T03:15:48.853Z,61.92
2019-05-15T03:16:49.756Z,62.13
2019-05-15T03:17:49.530Z,61.92
2019-05-15T03:18:50.599Z,61.71
2019-05-15T03:19:49.746Z,61.82
2019-05-15T03:20:50.146Z,62.02
2019-05-15T03:21:49.791Z,62.02
2019-05-15T03:22:49.206Z,61.82
2019-05-15T03:23:50.640Z,62.02
2019-05-15T03:24:50.160Z,62.02
2019-05-15T03:25:49.036Z,62.02
2019-05-15T03:26:49.711Z,62.02
2019-05-15T03:27:49.937Z,62.13
2019-05-15T03:28:49.586Z,62.23
2019-05-15T03:29:49.391Z,62.88
2019-05-15T03:31:18.245Z,62.65
2019-05-15T03:32:05.348Z,63.06
2019-05-15T03:32:55.799Z,62.54
2019-05-15T03:33:53.427Z,62.44
2019-05-15T03:34:55.624Z,61.61
2019-05-15T03:35:53.557Z,61.92
2019-05-15T03:36:53.099Z,61.92
2019-05-15T03:37:49.296Z,61.71
2019-05-15T03:38:49.908Z,62.02
2019-05-15T03:39:51.604Z,62.02
2019-05-15T03:40:49.821Z,61.71
2019-05-15T03:41:49.730Z,62.13
2019-05-15T03:42:49.646Z,62.13
2019-05-15T03:43:49.659Z,61.82
2019-05-15T03:44:49.995Z,62.13
2019-05-15T03:45:49.315Z,62.13
2019-05-15T03:46:49.182Z,61.71
2019-05-15T03:47:49.173Z,62.13
2019-05-15T03:48:48.759Z,61.92
2019-05-15T03:49:49.422Z,62.02
2019-05-15T03:50:48.929Z,62.13
2019-05-15T03:51:50.117Z,61.92
2019-05-15T03:52:49.590Z,62.02
2019-05-15T03:53:49.730Z,61.92
2019-05-15T03:54:49.517Z,61.92
2019-05-15T03:55:49.067Z,61.92
2019-05-15T03:56:49.871Z,62.02
2019-05-15T03:57:49.900Z,61.85
2019-05-15T03:58:49.312Z,61.61
2019-05-15T03:59:48.963Z,61.92
2019-05-15T04:00:49.839Z,61.61
2019-05-15T04:01:49.648Z,61.82
2019-05-15T04:02:48.808Z,62.02
2019-05-15T04:03:49.563Z,61.92
2019-05-15T04:04:50.175Z,62.13
2019-05-15T04:05:49.442Z,61.92
2019-05-15T04:06:49.889Z,61.82
2019-05-15T04:07:49.507Z,61.40
2019-05-15T04:08:49.722Z,61.61
2019-05-15T04:09:49.370Z,61.40
2019-05-15T04:10:48.779Z,61.40
2019-05-15T04:11:49.626Z,61.61
2019-05-15T04:12:49.326Z,61.71
2019-05-15T04:13:49.769Z,61.20
2019-05-15T04:14:49.815Z,61.17
2019-05-15T04:15:49.834Z,61.17
2019-05-15T04:16:49.531Z,61.51
2019-05-15T04:17:49.352Z,61.07
2019-05-15T04:18:49.031Z,61.07
2019-05-15T04:19:49.613Z,60.86
2019-05-15T04:20:49.301Z,61.27
2019-05-15T04:21:49.395Z,60.96
2019-05-15T04:22:49.182Z,61.07
2019-05-15T04:23:49.694Z,61.38
2019-05-15T04:24:49.405Z,60.34
2019-05-15T04:25:49.317Z,60.14
2019-05-15T04:26:48.696Z,60.44
2019-05-15T04:27:49.257Z,60.31
2019-05-15T04:28:49.454Z,60.31
2019-05-15T04:29:49.235Z,60.42
2019-05-15T04:30:49.291Z,60.63
2019-05-15T04:31:55.710Z,60.00
2019-05-15T04:32:48.819Z,60.00
2019-05-15T04:33:49.103Z,60.63
2019-05-15T04:34:48.941Z,60.42
2019-05-15T04:35:49.508Z,59.80
2019-05-15T04:36:49.509Z,59.90
2019-05-15T04:37:49.467Z,60.42
2019-05-15T04:38:49.836Z,59.90
2019-05-15T04:39:49.152Z,60.93
2019-05-15T04:40:49.856Z,60.42
2019-05-15T04:41:49.742Z,60.63
2019-05-15T04:42:49.606Z,60.93
2019-05-15T04:43:49.360Z,60.42
2019-05-15T04:44:49.336Z,60.31
2019-05-15T04:45:49.599Z,59.59
2019-05-15T04:46:49.528Z,60.60
2019-05-15T04:47:49.637Z,59.98
2019-05-15T04:48:49.871Z,60.08
2019-05-15T04:49:50.145Z,59.90
2019-05-15T04:50:49.452Z,60.08
2019-05-15T04:51:49.467Z,60.08
2019-05-15T04:52:49.918Z,59.69
2019-05-15T04:53:49.928Z,59.77
2019-05-15T04:54:49.217Z,60.39
2019-05-15T04:55:49.068Z,59.56
2019-05-15T04:56:48.904Z,59.67
2019-05-15T04:57:49.921Z,60.18
2019-05-15T04:58:50.266Z,59.98
2019-05-15T04:59:49.486Z,59.77
2019-05-15T05:00:49.633Z,59.77
2019-05-15T05:01:46.437Z,59.46
2019-05-15T05:02:49.495Z,58.92
2019-05-15T05:03:49.374Z,58.71
2019-05-15T05:04:49.194Z,58.81
2019-05-15T05:05:49.544Z,58.81
2019-05-15T05:06:49.281Z,58.81
2019-05-15T05:07:48.937Z,58.81
2019-05-15T05:08:48.832Z,59.12
2019-05-15T05:09:48.859Z,59.23
2019-05-15T05:10:48.839Z,58.92
2019-05-15T05:11:48.857Z,59.02
2019-05-15T05:12:50.576Z,59.23
2019-05-15T05:13:48.535Z,59.02
2019-05-15T05:14:48.418Z,58.79
2019-05-15T05:15:46.311Z,59.09
2019-05-15T05:16:48.877Z,59.41
2019-05-15T05:17:48.885Z,58.99
2019-05-15T05:18:48.597Z,58.06
2019-05-15T05:19:47.845Z,58.17
2019-05-15T05:20:48.395Z,57.93
2019-05-15T05:21:47.933Z,58.37
2019-05-15T05:22:48.344Z,58.48
2019-05-15T05:23:48.215Z,58.17
2019-05-15T05:24:47.814Z,58.48
2019-05-15T05:25:46.206Z,58.48
2019-05-15T05:26:48.856Z,58.58
2019-05-15T05:27:48.528Z,57.96
2019-05-15T05:28:48.424Z,58.25
2019-05-15T05:29:48.048Z,58.14
2019-05-15T05:30:48.189Z,58.35
2019-05-15T05:31:49.027Z,58.04
2019-05-15T05:32:46.101Z,57.93
2019-05-15T05:33:48.487Z,57.83
2019-05-15T05:34:48.198Z,58.32
2019-05-15T05:35:48.357Z,58.22
2019-05-15T05:36:47.968Z,57.18
2019-05-15T05:37:48.000Z,57.91
2019-05-15T05:38:46.045Z,56.77
2019-05-15T05:39:48.208Z,57.09
2019-05-15T05:40:46.035Z,57.39
2019-05-15T05:41:45.997Z,57.39
2019-05-15T05:42:47.976Z,56.88
2019-05-15T05:43:45.976Z,56.65
2019-05-15T05:44:45.977Z,57.06
2019-05-15T05:45:46.094Z,56.85
2019-05-15T05:46:45.945Z,57.06
2019-05-15T05:47:45.945Z,57.26
2019-05-15T05:48:45.921Z,57.26
2019-05-15T05:49:45.911Z,56.85
2019-05-15T05:50:45.928Z,57.03
2019-05-15T05:51:47.952Z,56.72
2019-05-15T05:52:45.877Z,56.82
2019-05-15T05:53:47.919Z,55.28
2019-05-15T05:54:45.858Z,54.97
2019-05-15T05:55:45.871Z,55.49
2019-05-15T05:56:48.110Z,55.26
2019-05-15T05:57:45.821Z,55.36
2019-05-15T05:58:45.811Z,55.66
2019-05-15T05:59:45.799Z,55.57
2019-05-15T06:00:48.603Z,55.36
2019-05-15T06:01:48.182Z,55.77
2019-05-15T06:02:48.786Z,55.36
2019-05-15T06:03:48.902Z,55.05
2019-05-15T06:04:47.857Z,54.72
2019-05-15T06:05:45.757Z,54.64
2019-05-15T06:06:45.722Z,54.41
2019-05-15T06:07:45.735Z,54.51
2019-05-15T06:08:47.830Z,53.89
2019-05-15T06:09:45.690Z,54.00
2019-05-15T06:10:45.704Z,53.17
2019-05-15T06:11:45.668Z,54.41
2019-05-15T06:12:45.659Z,53.07
2019-05-15T06:13:45.659Z,53.66
2019-05-15T06:14:45.637Z,53.45
2019-05-15T06:15:45.652Z,54.41
2019-05-15T06:16:47.982Z,53.07
2019-05-15T06:17:47.994Z,53.05
2019-05-15T06:18:45.600Z,52.33
2019-05-15T06:19:48.046Z,52.84
2019-05-15T06:20:45.597Z,52.33
2019-05-15T06:21:54.577Z,52.61
2019-05-15T06:22:47.883Z,52.53
2019-05-15T06:23:48.438Z,52.81
2019-05-15T06:24:48.395Z,52.51
2019-05-15T06:25:45.548Z,52.40
2019-05-15T06:26:45.505Z,52.61
2019-05-15T06:27:48.032Z,52.51
2019-05-15T06:28:45.489Z,52.69
2019-05-15T06:29:45.471Z,51.76
2019-05-15T06:30:45.487Z,51.15
2019-05-15T06:31:45.450Z,51.45
2019-05-15T06:33:03.859Z,50.82
2019-05-15T06:33:48.855Z,50.71
2019-05-15T06:34:45.419Z,50.82
2019-05-15T06:35:45.432Z,50.79
2019-05-15T06:36:45.403Z,51.41
2019-05-15T06:37:45.392Z,50.69
2019-05-15T06:38:45.381Z,50.28
2019-05-15T06:39:45.364Z,50.05
2019-05-15T06:40:45.378Z,50.05
2019-05-15T06:41:45.352Z,50.15
2019-05-15T06:42:45.329Z,50.64
2019-05-15T06:43:45.321Z,50.13
2019-05-15T06:44:45.309Z,50.36
2019-05-15T06:45:45.333Z,49.72
2019-05-15T06:46:45.304Z,49.51
2019-05-15T06:47:45.276Z,50.10
2019-05-15T06:48:45.265Z,49.59
2019-05-15T06:49:45.269Z,49.16
2019-05-15T06:50:45.267Z,49.26
2019-05-15T06:51:45.234Z,48.55
2019-05-15T06:52:45.223Z,49.57
2019-05-15T06:53:45.209Z,48.52
2019-05-15T06:54:45.198Z,48.22
2019-05-15T06:55:45.211Z,48.32
2019-05-15T06:56:45.181Z,47.78
2019-05-15T06:57:45.163Z,47.89
2019-05-15T06:58:45.154Z,47.58
2019-05-15T06:59:45.143Z,47.07
2019-05-15T07:00:45.157Z,47.25
2019-05-15T07:01:45.119Z,47.35
2019-05-15T07:02:45.117Z,46.44
2019-05-15T07:03:45.100Z,46.53
2019-05-15T07:04:45.106Z,46.41
2019-05-15T07:05:45.155Z,47.03
2019-05-15T07:06:45.069Z,46.51
2019-05-15T07:07:45.093Z,46.51
2019-05-15T07:08:45.045Z,46.39
2019-05-15T07:09:45.041Z,46.39
2019-05-15T07:10:45.121Z,45.57
2019-05-15T07:11:45.011Z,45.17
2019-05-15T07:12:48.109Z,45.37
2019-05-15T07:13:44.991Z,45.47
2019-05-15T07:14:44.980Z,45.17
2019-05-15T07:15:44.994Z,44.14
2019-05-15T07:16:44.962Z,43.94
2019-05-15T07:17:44.947Z,44.76
2019-05-15T07:18:44.938Z,45.18
2019-05-15T07:19:44.924Z,45.39
2019-05-15T07:20:44.940Z,45.39
2019-05-15T07:21:44.912Z,45.59
2019-05-15T07:22:44.892Z,45.72
2019-05-15T07:23:44.889Z,45.80
2019-05-15T07:24:44.872Z,45.51
2019-05-15T07:25:44.884Z,45.51
2019-05-15T07:26:44.847Z,46.03
2019-05-15T07:27:44.837Z,46.41
2019-05-15T07:28:44.827Z,46.94
2019-05-15T07:29:44.814Z,47.15
2019-05-15T07:30:44.830Z,46.21
2019-05-15T07:31:44.793Z,46.03
2019-05-15T07:32:44.782Z,45.08
2019-05-15T07:33:44.772Z,44.57
2019-05-15T07:34:44.760Z,44.65
2019-05-15T07:35:44.773Z,44.57
2019-05-15T07:36:44.739Z,44.14
2019-05-15T07:37:44.730Z,43.43
2019-05-15T07:38:44.717Z,42.50
2019-05-15T07:39:44.702Z,40.26
2019-05-15T07:40:44.725Z,39.95
2019-05-15T07:41:44.683Z,39.75
2019-05-15T07:42:44.669Z,40.16
2019-05-15T07:43:44.658Z,40.05
2019-05-15T07:44:44.647Z,39.14
2019-05-15T07:45:44.872Z,39.85
2019-05-15T07:46:44.627Z,40.46
2019-05-15T07:47:44.614Z,39.14
2019-05-15T07:48:44.611Z,39.64
2019-05-15T07:49:44.594Z,37.60
2019-05-15T07:50:44.605Z,37.60
2019-05-15T07:51:44.583Z,39.03
2019-05-15T07:52:44.563Z,38.73
2019-05-15T07:53:44.549Z,38.01
2019-05-15T07:54:44.540Z,36.88
2019-05-15T07:55:44.557Z,36.68
2019-05-15T07:56:44.520Z,36.56
2019-05-15T07:57:44.503Z,36.87
2019-05-15T07:58:44.490Z,36.46
2019-05-15T07:59:44.479Z,36.66
2019-05-15T08:00:44.500Z,36.65
2019-05-15T08:01:44.459Z,37.05
2019-05-15T08:02:44.448Z,37.75
2019-05-15T08:03:56.536Z,36.82
2019-05-15T08:04:45.426Z,36.82
2019-05-15T08:05:57.936Z,35.28
2019-05-15T08:06:45.402Z,34.17
2019-05-15T08:07:44.391Z,34.05
2019-05-15T08:08:44.383Z,34.05
2019-05-15T08:09:44.371Z,33.83
2019-05-15T08:10:44.385Z,33.62
2019-05-15T08:11:44.350Z,32.60
2019-05-15T08:12:44.337Z,33.62
2019-05-15T08:13:44.326Z,33.62
2019-05-15T08:14:47.340Z,32.59
2019-05-15T08:15:45.327Z,33.51
2019-05-15T08:16:44.296Z,33.40
2019-05-15T08:18:00.109Z,34.12
2019-05-15T08:18:45.270Z,33.71
2019-05-15T08:19:44.260Z,33.81
2019-05-15T08:20:44.275Z,33.69
2019-05-15T08:21:44.237Z,34.00
2019-05-15T08:22:45.961Z,34.00
2019-05-15T08:23:44.217Z,33.98
2019-05-15T08:24:44.204Z,33.48
2019-05-15T08:25:44.222Z,33.36
2019-05-15T08:26:45.644Z,34.07
2019-05-15T08:27:44.171Z,34.16
2019-05-15T08:28:44.159Z,34.56
2019-05-15T08:29:44.149Z,34.66
2019-05-15T08:30:44.172Z,33.54
2019-05-15T08:31:44.127Z,33.85
2019-05-15T08:32:44.138Z,33.85
2019-05-15T08:33:44.107Z,33.95
2019-05-15T08:34:44.102Z,34.56
2019-05-15T08:35:47.988Z,33.44
2019-05-15T08:36:45.071Z,34.56
2019-05-15T08:37:44.064Z,33.95
2019-05-15T08:38:44.052Z,33.95
2019-05-15T08:39:44.042Z,33.14
2019-05-15T08:40:44.054Z,34.77
2019-05-15T08:41:44.019Z,34.66
2019-05-15T08:42:44.009Z,34.78
2019-05-15T08:43:43.997Z,34.87
2019-05-15T08:44:43.988Z,34.16
2019-05-15T08:45:44.004Z,34.05
2019-05-15T08:46:44.458Z,34.16
2019-05-15T08:47:43.959Z,33.34
2019-05-15T08:48:43.951Z,33.85
2019-05-15T08:49:43.932Z,33.83
2019-05-15T08:50:43.948Z,34.97
2019-05-15T08:51:43.913Z,33.75
2019-05-15T08:52:43.902Z,34.56
2019-05-15T08:53:43.892Z,33.65
2019-05-15T08:54:43.882Z,33.53
2019-05-15T08:55:43.896Z,33.33
2019-05-15T08:56:43.859Z,33.83
2019-05-15T08:57:43.872Z,33.94
2019-05-15T08:58:43.835Z,33.33
2019-05-15T08:59:43.824Z,33.51
2019-05-15T09:00:44.210Z,33.11
2019-05-15T09:01:43.802Z,33.72
2019-05-15T09:02:43.821Z,33.11
2019-05-15T09:03:43.783Z,33.41
2019-05-15T09:04:43.772Z,34.04
2019-05-15T09:05:43.783Z,35.14
2019-05-15T09:06:43.762Z,34.44
2019-05-15T09:07:43.735Z,34.02
2019-05-15T09:08:43.727Z,33.51
2019-05-15T09:09:43.721Z,33.41
2019-05-15T09:10:43.726Z,33.50
2019-05-15T09:11:43.688Z,32.59
2019-05-15T09:12:43.687Z,32.67
2019-05-15T09:13:44.377Z,32.47
2019-05-15T09:14:43.656Z,32.77
2019-05-15T09:15:43.682Z,32.45
2019-05-15T09:16:43.636Z,32.35
2019-05-15T09:17:43.631Z,31.74
2019-05-15T09:18:43.612Z,31.73
2019-05-15T09:19:43.601Z,31.52
2019-05-15T09:20:43.620Z,31.41
2019-05-15T09:21:43.581Z,31.41
2019-05-15T09:22:43.574Z,32.23
2019-05-15T09:23:43.565Z,30.50
2019-05-15T09:24:43.582Z,31.01
2019-05-15T09:25:43.563Z,31.41
2019-05-15T09:26:43.530Z,30.60
2019-05-15T09:27:43.517Z,30.50
2019-05-15T09:28:43.506Z,30.29
2019-05-15T09:29:43.494Z,31.12
2019-05-15T09:30:43.508Z,30.70
2019-05-15T09:31:43.472Z,30.70
2019-05-15T09:32:43.462Z,30.80
2019-05-15T09:33:43.450Z,30.08
2019-05-15T09:34:50.898Z,30.57
2019-05-15T09:35:44.458Z,30.47
2019-05-15T09:36:45.249Z,30.98
2019-05-15T09:37:43.405Z,30.47
2019-05-15T09:38:43.393Z,30.98
2019-05-15T09:39:43.387Z,30.47
2019-05-15T09:40:46.552Z,30.27
2019-05-15T09:41:44.359Z,29.96
2019-05-15T09:42:43.351Z,30.47
2019-05-15T09:43:43.340Z,30.58
2019-05-15T09:44:43.326Z,30.99
2019-05-15T09:45:43.341Z,31.19
2019-05-15T09:46:43.311Z,31.40
2019-05-15T09:47:43.302Z,31.19
2019-05-15T09:48:43.284Z,31.90
2019-05-15T09:49:43.276Z,32.41
2019-05-15T09:50:43.285Z,31.49
2019-05-15T09:51:43.250Z,31.90
2019-05-15T09:52:43.236Z,32.51
2019-05-15T09:53:43.228Z,31.60
2019-05-15T09:54:43.219Z,32.41
2019-05-15T09:55:43.231Z,31.49
2019-05-15T09:56:43.193Z,30.98
2019-05-15T09:57:43.181Z,31.58
2019-05-15T09:58:43.172Z,31.48
2019-05-15T09:59:43.161Z,30.08
2019-05-15T10:00:43.183Z,31.28
2019-05-15T10:01:43.140Z,31.49
2019-05-15T10:02:43.129Z,31.18
2019-05-15T10:03:44.554Z,30.98
2019-05-15T10:04:43.127Z,31.07
2019-05-15T10:05:43.162Z,31.88
2019-05-15T10:06:43.085Z,31.38
2019-05-15T10:07:43.082Z,31.58
2019-05-15T10:08:43.068Z,31.99
2019-05-15T10:09:43.064Z,32.50
2019-05-15T10:10:43.082Z,32.61
2019-05-15T10:11:43.031Z,32.50
2019-05-15T10:12:43.029Z,32.39
2019-05-15T10:13:43.022Z,32.59
2019-05-15T10:14:43.006Z,32.19
2019-05-15T10:15:43.011Z,32.50
2019-05-15T10:16:42.977Z,33.00
2019-05-15T10:17:42.964Z,32.79
2019-05-15T10:18:42.957Z,32.59
2019-05-15T10:19:42.946Z,32.70
2019-05-15T10:20:42.956Z,32.59
2019-05-15T10:21:42.988Z,33.20
2019-05-15T10:22:42.911Z,32.79
2019-05-15T10:23:42.904Z,31.88
2019-05-15T10:24:42.909Z,32.70
2019-05-15T10:25:42.908Z,32.79
2019-05-15T10:26:42.892Z,32.59
2019-05-15T10:27:42.858Z,33.71
2019-05-15T10:28:42.849Z,33.81
2019-05-15T10:29:42.834Z,33.40
2019-05-15T10:30:42.850Z,32.61
2019-05-15T10:31:42.813Z,32.61
2019-05-15T10:32:42.804Z,32.61
2019-05-15T10:33:42.793Z,33.23
2019-05-15T10:34:42.781Z,32.42
2019-05-15T10:35:42.796Z,32.82
2019-05-15T10:36:42.759Z,33.42
2019-05-15T10:37:42.748Z,33.52
2019-05-15T10:38:42.758Z,33.22
2019-05-15T10:39:42.725Z,33.30
2019-05-15T10:40:58.629Z,33.10
2019-05-15T10:41:43.702Z,33.00
2019-05-15T10:42:42.698Z,32.79
2019-05-15T10:43:46.062Z,33.50
2019-05-15T10:44:43.669Z,32.29
2019-05-15T10:45:43.500Z,32.68
2019-05-15T10:46:42.649Z,33.91
2019-05-15T10:47:42.649Z,33.91
2019-05-15T10:48:42.629Z,33.30
2019-05-15T10:49:42.616Z,33.61
2019-05-15T10:50:42.628Z,33.81
2019-05-15T10:51:42.599Z,33.81
2019-05-15T10:52:42.605Z,33.83
2019-05-15T10:53:42.573Z,33.62
2019-05-15T10:54:42.565Z,34.75
2019-05-15T10:55:42.577Z,34.45
2019-05-15T10:56:42.540Z,34.65
2019-05-15T10:57:44.384Z,34.34
2019-05-15T10:58:42.518Z,34.85
2019-05-15T10:59:42.507Z,34.03
2019-05-15T11:00:42.521Z,34.74
2019-05-15T11:01:42.486Z,33.91
2019-05-15T11:02:42.478Z,34.64
2019-05-15T11:03:42.463Z,34.82
2019-05-15T11:04:42.453Z,34.72
2019-05-15T11:05:45.773Z,34.52
2019-05-15T11:06:42.430Z,33.61
2019-05-15T11:07:42.421Z,34.22
2019-05-15T11:08:42.410Z,34.40
2019-05-15T11:09:42.397Z,33.49
2019-05-15T11:10:42.411Z,34.50
2019-05-15T11:11:42.378Z,34.30
2019-05-15T11:12:42.364Z,35.43
2019-05-15T11:13:42.354Z,34.31
2019-05-15T11:14:42.345Z,34.00
2019-05-15T11:15:42.737Z,34.11
2019-05-15T11:16:42.321Z,34.60
2019-05-15T11:17:42.319Z,34.50
2019-05-15T11:18:42.414Z,34.20
2019-05-15T11:19:42.473Z,33.58
2019-05-15T11:20:42.315Z,33.88
2019-05-15T11:21:43.636Z,33.67
2019-05-15T11:22:42.902Z,33.47
2019-05-15T11:23:42.776Z,33.47
2019-05-15T11:24:42.234Z,33.27
2019-05-15T11:25:42.254Z,33.98
2019-05-15T11:26:42.252Z,33.78
2019-05-15T11:27:42.202Z,34.40
2019-05-15T11:28:42.191Z,34.91
2019-05-15T11:29:42.183Z,33.40
2019-05-15T11:30:42.208Z,33.81
2019-05-15T11:31:42.157Z,33.50
2019-05-15T11:32:42.151Z,33.40
2019-05-15T11:33:42.137Z,34.22
2019-05-15T11:34:42.125Z,33.20
2019-05-15T11:35:56.973Z,33.71
2019-05-15T11:36:43.102Z,33.71
2019-05-15T11:37:45.539Z,33.81
2019-05-15T11:38:42.084Z,33.83
2019-05-15T11:39:46.224Z,33.91
2019-05-15T11:40:43.084Z,33.72
2019-05-15T11:41:42.052Z,33.50
2019-05-15T11:42:42.044Z,33.40
2019-05-15T11:43:42.032Z,33.71
2019-05-15T11:44:42.017Z,33.50
2019-05-15T11:45:42.034Z,33.50
2019-05-15T11:46:41.997Z,32.98
2019-05-15T11:47:41.983Z,32.17
2019-05-15T11:48:41.973Z,32.38
2019-05-15T11:49:41.964Z,32.88
2019-05-15T11:50:41.982Z,33.29
2019-05-15T11:51:41.942Z,32.67
2019-05-15T11:52:41.929Z,32.65
2019-05-15T11:53:41.919Z,32.64
2019-05-15T11:54:41.911Z,31.51
2019-05-15T11:55:41.921Z,31.70
2019-05-15T11:56:41.886Z,31.06
2019-05-15T11:57:46.865Z,30.31
2019-05-15T11:58:42.864Z,29.79
2019-05-15T11:59:45.060Z,30.10
2019-05-15T12:00:41.868Z,29.69
2019-05-15T12:01:41.832Z,30.51
2019-05-15T12:02:41.852Z,30.83
2019-05-15T12:03:41.812Z,29.82
2019-05-15T12:04:41.799Z,30.54
2019-05-15T12:05:41.817Z,30.34
2019-05-15T12:06:41.780Z,31.24
2019-05-15T12:07:41.768Z,31.46
2019-05-15T12:08:41.759Z,30.66
2019-05-15T12:09:41.745Z,31.48
2019-05-15T12:10:41.762Z,30.87
2019-05-15T12:11:41.726Z,31.29
2019-05-15T12:12:41.715Z,31.90
2019-05-15T12:13:41.706Z,31.49
2019-05-15T12:14:41.694Z,31.99
2019-05-15T12:15:41.714Z,31.29
2019-05-15T12:16:41.757Z,31.39
2019-05-15T12:17:41.660Z,31.19
2019-05-15T12:18:41.658Z,31.49
2019-05-15T12:19:41.640Z,30.90
2019-05-15T12:20:41.662Z,31.42
2019-05-15T12:21:41.617Z,32.72
2019-05-15T12:22:41.609Z,32.72
2019-05-15T12:23:41.599Z,32.62
2019-05-15T12:24:41.599Z,32.32
2019-05-15T12:25:41.645Z,32.32
2019-05-15T12:26:41.564Z,32.32
2019-05-15T12:27:41.556Z,31.51
2019-05-15T12:28:41.550Z,31.91
2019-05-15T12:29:41.565Z,31.82
2019-05-15T12:30:41.559Z,32.53
2019-05-15T12:31:41.512Z,32.21
2019-05-15T12:32:41.505Z,32.64
2019-05-15T12:33:41.488Z,32.53
2019-05-15T12:34:49.519Z,32.64
2019-05-15T12:35:41.499Z,32.64
2019-05-15T12:36:52.130Z,32.43
2019-05-15T12:37:42.459Z,32.53
2019-05-15T12:38:41.437Z,32.64
2019-05-15T12:39:41.426Z,32.84
2019-05-15T12:59:44.630Z,32.06
2019-05-15T13:00:41.236Z,32.67
2019-05-15T13:01:41.200Z,31.85
2019-05-15T13:02:41.231Z,31.45
2019-05-15T13:03:41.205Z,31.96
2019-05-15T13:04:41.152Z,32.56
2019-05-15T13:05:41.162Z,33.07
2019-05-15T13:06:49.437Z,32.26
2019-05-15T13:07:42.158Z,33.07
2019-05-15T13:08:41.106Z,33.88
2019-05-15T13:09:41.095Z,33.47
2019-05-15T13:10:41.105Z,33.39
2019-05-15T13:11:41.074Z,33.89